Flood From: 18-02-2018 10:00 Until: 19-02-2018 06:00 warning for: Flood Level: Yellow info button

Although rather usual in this region, locally or potentially dangerous phenomena are expected. (such as local winds, summer thunderstorms, rising streams or high waves) Be aware and pay attention to the latest weather updates, especially if you carry out activities exposed to weather or close to a stream or shoreline. 


Meteo18 Weather Cam more information Meteo18 Weather Cam


Thunder radar more information blitzortung!


Rain radar more information rain snow radar


Visit our other weather sites:

Template documentation
and downloads

And another site



Weather Underground History page Text

Daily Summary for May 21, 2017 Units:  Both    English   Metric
« Previous Day
Next Day »
Daily Weekly Monthly Yearly Custom
  High: Low: Average:
Temperature: TemperatureC °F /  -17.8 °C 6.0 °F /  -14.4 °C 14.2 °F /  -9.9 °C
Dew Point: DewpointC °F /  -17.8 °C 5.4 °F /  -14.8 °C 9 °F /  -12.8 °C
Humidity: Humidity % 47 % 73 %
Wind Speed: WindSpeedKMH mph /  0 km/h - 3.8 mph /  6.1 km/h
Wind Gust: WindSpeedGustKMH mph /  0 km/h - -
Wind:- - ENE
Pressure: PressurehPa in /  0 hPa 1019.5 in /  34520.3 hPa -
Precipitation: 0.3 in /  7.62 mm    
Historical Graphs
 
 
Tabular Data for May 21, 2017
Time Temperature Dew Point Pressure Wind Wind Speed Wind Gust Humidity Rainfall Rate (Hourly)
TemperatureC °F /  -17.8 °C DewpointC °F /  -17.8 °C PressurehPa in /  0 hPa Calm     Humidity % HourlyPrecipMM in /  0 mm
00:02 8.8 °F /  -12.9 °C 8.0 °F /  -13.3 °C 1026.6 in /  34760.7 hPa Calm     95 % 0.0 in /  0 mm
00:07 8.8 °F /  -12.9 °C 8.0 °F /  -13.3 °C 1026.6 in /  34760.7 hPa WNW 1.6 mph /  2.6 km/h   95 % 0.0 in /  0 mm
00:12 8.7 °F /  -12.9 °C 7.9 °F /  -13.4 °C 1026.6 in /  34760.7 hPa Calm     95 % 0.0 in /  0 mm
00:17 8.7 °F /  -12.9 °C 7.9 °F /  -13.4 °C 1026.6 in /  34760.7 hPa Calm   3.2 mph /  5.1 km/h 95 % 0.0 in /  0 mm
00:22 8.6 °F /  -13 °C 7.8 °F /  -13.4 °C 1026.6 in /  34760.7 hPa Calm   3.2 mph /  5.1 km/h 95 % 0.0 in /  0 mm
00:27 8.6 °F /  -13 °C 8.0 °F /  -13.3 °C 1026.6 in /  34760.7 hPa Calm   3.2 mph /  5.1 km/h 96 % 0.0 in /  0 mm
00:37 8.7 °F /  -12.9 °C 8.1 °F /  -13.3 °C 1026.6 in /  34760.7 hPa NNE 1.6 mph /  2.6 km/h 1.6 mph /  2.6 km/h 96 % 0.0 in /  0 mm
00:42 8.6 °F /  -13 °C 8.0 °F /  -13.3 °C 1026.6 in /  34760.7 hPa Calm   3.2 mph /  5.1 km/h 96 % 0.0 in /  0 mm
00:52 8.3 °F /  -13.2 °C 7.5 °F /  -13.6 °C 1026.6 in /  34760.7 hPa Calm   3.2 mph /  5.1 km/h 95 % 0.0 in /  0 mm
01:02 8.0 °F /  -13.3 °C 7.4 °F /  -13.7 °C 1026.6 in /  34760.7 hPa Calm   1.6 mph /  2.6 km/h 96 % 0.0 in /  0 mm
01:12 7.9 °F /  -13.4 °C 7.3 °F /  -13.7 °C 1026.6 in /  34760.7 hPa Calm   1.6 mph /  2.6 km/h 96 % 0.0 in /  0 mm
01:17 7.9 °F /  -13.4 °C 7.3 °F /  -13.7 °C 1027.0 in /  34774.2 hPa Calm   1.6 mph /  2.6 km/h 96 % 0.0 in /  0 mm
01:22 7.9 °F /  -13.4 °C 7.3 °F /  -13.7 °C 1027.0 in /  34774.2 hPa Calm   1.6 mph /  2.6 km/h 96 % 0.0 in /  0 mm
01:32 7.9 °F /  -13.4 °C 7.3 °F /  -13.7 °C 1026.6 in /  34760.7 hPa Calm   1.6 mph /  2.6 km/h 96 % 0.0 in /  0 mm
01:42 7.8 °F /  -13.4 °C 7.2 °F /  -13.8 °C 1026.6 in /  34760.7 hPa Calm     96 % 0.3 in /  7.62 mm
01:52 7.7 °F /  -13.5 °C 7.1 °F /  -13.8 °C 1026.6 in /  34760.7 hPa Calm     96 % 0.3 in /  7.62 mm
01:57 7.6 °F /  -13.6 °C 7.0 °F /  -13.9 °C 1026.6 in /  34760.7 hPa Calm     96 % 0.3 in /  7.62 mm
02:02 7.5 °F /  -13.6 °C 6.9 °F /  -13.9 °C 1026.6 in /  34760.7 hPa Calm     96 % 0.3 in /  7.62 mm
02:07 7.5 °F /  -13.6 °C 6.9 °F /  -13.9 °C 1026.6 in /  34760.7 hPa Calm     96 % 0.3 in /  7.62 mm
02:12 7.4 °F /  -13.7 °C 6.8 °F /  -14 °C 1026.6 in /  34760.7 hPa Calm     96 % 0.3 in /  7.62 mm
02:17 7.4 °F /  -13.7 °C 6.8 °F /  -14 °C 1026.6 in /  34760.7 hPa Calm     96 % 0.3 in /  7.62 mm
02:22 7.5 °F /  -13.6 °C 6.9 °F /  -13.9 °C 1026.6 in /  34760.7 hPa Calm     96 % 0.3 in /  7.62 mm
02:32 7.4 °F /  -13.7 °C 7.0 °F /  -13.9 °C 1026.6 in /  34760.7 hPa Calm     97 % 0.3 in /  7.62 mm
02:37 7.5 °F /  -13.6 °C 7.1 °F /  -13.8 °C 1026.6 in /  34760.7 hPa Calm     97 % 0.3 in /  7.62 mm
02:42 7.5 °F /  -13.6 °C 6.9 °F /  -13.9 °C 1026.6 in /  34760.7 hPa Calm     96 % 0.0 in /  0 mm
02:52 7.3 °F /  -13.7 °C 6.7 °F /  -14.1 °C 1026.3 in /  34750.5 hPa Calm     96 % 0.0 in /  0 mm
03:02 7.1 °F /  -13.8 °C 6.5 °F /  -14.2 °C 1026.3 in /  34750.5 hPa Calm     96 % 0.0 in /  0 mm
03:12 7.1 °F /  -13.8 °C 6.7 °F /  -14.1 °C 1026.3 in /  34750.5 hPa Calm     97 % 0.0 in /  0 mm
03:17 7.2 °F /  -13.8 °C 6.8 °F /  -14 °C 1026.3 in /  34750.5 hPa Calm     97 % 0.0 in /  0 mm
03:22 7.2 °F /  -13.8 °C 6.8 °F /  -14 °C 1026.3 in /  34750.5 hPa Calm     97 % 0.0 in /  0 mm
03:27 7.3 °F /  -13.7 °C 6.9 °F /  -13.9 °C 1026.3 in /  34750.5 hPa Calm     97 % 0.0 in /  0 mm
03:32 7.3 °F /  -13.7 °C 6.9 °F /  -13.9 °C 1026.3 in /  34750.5 hPa Calm     97 % 0.0 in /  0 mm
03:42 7.0 °F /  -13.9 °C 6.4 °F /  -14.2 °C 1026.3 in /  34750.5 hPa Calm   1.6 mph /  2.6 km/h 96 % 0.0 in /  0 mm
03:52 6.7 °F /  -14.1 °C 6.1 °F /  -14.4 °C 1026.3 in /  34750.5 hPa ENE 1.6 mph /  2.6 km/h 1.6 mph /  2.6 km/h 96 % 0.0 in /  0 mm
04:02 6.6 °F /  -14.1 °C 6.0 °F /  -14.4 °C 1026.3 in /  34750.5 hPa Calm   4.8 mph /  7.7 km/h 96 % 0.0 in /  0 mm
04:12 6.4 °F /  -14.2 °C 5.8 °F /  -14.6 °C 1026.3 in /  34750.5 hPa Calm   3.2 mph /  5.1 km/h 96 % 0.0 in /  0 mm
04:17 6.6 °F /  -14.1 °C 6.2 °F /  -14.3 °C 1026.3 in /  34750.5 hPa Calm   1.6 mph /  2.6 km/h 97 % 0.0 in /  0 mm
04:22 6.6 °F /  -14.1 °C 6.2 °F /  -14.3 °C 1026.3 in /  34750.5 hPa Calm   1.6 mph /  2.6 km/h 97 % 0.0 in /  0 mm
04:32 6.2 °F /  -14.3 °C 5.6 °F /  -14.7 °C 1026.3 in /  34750.5 hPa Calm     96 % 0.0 in /  0 mm
04:42 6.3 °F /  -14.3 °C 5.9 °F /  -14.5 °C 1026.3 in /  34750.5 hPa Calm     97 % 0.0 in /  0 mm
04:47 6.3 °F /  -14.3 °C 5.9 °F /  -14.5 °C 1026.3 in /  34750.5 hPa Calm     97 % 0.0 in /  0 mm
04:52 6.3 °F /  -14.3 °C 5.9 °F /  -14.5 °C 1026.3 in /  34750.5 hPa Calm     97 % 0.0 in /  0 mm
05:02 6.2 °F /  -14.3 °C 5.8 °F /  -14.6 °C 1026.3 in /  34750.5 hPa Calm     97 % 0.0 in /  0 mm
05:12 6.0 °F /  -14.4 °C 5.4 °F /  -14.8 °C 1026.3 in /  34750.5 hPa Calm     96 % 0.0 in /  0 mm
05:17 6.2 °F /  -14.3 °C 5.8 °F /  -14.6 °C 1026.0 in /  34740.4 hPa Calm     97 % 0.0 in /  0 mm
05:22 6.3 °F /  -14.3 °C 5.9 °F /  -14.5 °C 1026.0 in /  34740.4 hPa Calm     97 % 0.0 in /  0 mm
05:32 6.1 °F /  -14.4 °C 5.7 °F /  -14.6 °C 1026.0 in /  34740.4 hPa Calm     97 % 0.0 in /  0 mm
05:42 6.0 °F /  -14.4 °C 5.6 °F /  -14.7 °C 1026.3 in /  34750.5 hPa Calm     97 % 0.0 in /  0 mm
05:52 6.0 °F /  -14.4 °C 5.6 °F /  -14.7 °C 1026.3 in /  34750.5 hPa Calm     97 % 0.0 in /  0 mm
05:57 6.0 °F /  -14.4 °C 5.6 °F /  -14.7 °C 1026.3 in /  34750.5 hPa Calm     97 % 0.0 in /  0 mm
06:02 6.0 °F /  -14.4 °C 5.6 °F /  -14.7 °C 1026.3 in /  34750.5 hPa Calm     97 % 0.0 in /  0 mm
06:07 6.1 °F /  -14.4 °C 5.7 °F /  -14.6 °C 1026.3 in /  34750.5 hPa Calm     97 % 0.0 in /  0 mm
06:12 6.1 °F /  -14.4 °C 5.7 °F /  -14.6 °C 1026.3 in /  34750.5 hPa Calm     97 % 0.0 in /  0 mm
06:17 6.2 °F /  -14.3 °C 5.8 °F /  -14.6 °C 1026.3 in /  34750.5 hPa Calm     97 % 0.0 in /  0 mm
06:22 6.2 °F /  -14.3 °C 5.8 °F /  -14.6 °C 1026.3 in /  34750.5 hPa Calm     97 % 0.0 in /  0 mm
06:32 6.2 °F /  -14.3 °C 5.8 °F /  -14.6 °C 1026.3 in /  34750.5 hPa Calm     97 % 0.0 in /  0 mm
06:42 6.5 °F /  -14.2 °C 6.1 °F /  -14.4 °C 1026.3 in /  34750.5 hPa Calm     97 % 0.0 in /  0 mm
06:47 6.4 °F /  -14.2 °C 5.8 °F /  -14.6 °C 1026.3 in /  34750.5 hPa North 1.6 mph /  2.6 km/h   96 % 0.0 in /  0 mm
06:52 6.7 °F /  -14.1 °C 6.3 °F /  -14.3 °C 1026.3 in /  34750.5 hPa Calm     97 % 0.0 in /  0 mm
06:57 6.8 °F /  -14 °C 6.2 °F /  -14.3 °C 1026.3 in /  34750.5 hPa Calm   1.6 mph /  2.6 km/h 96 % 0.0 in /  0 mm
07:02 7.1 °F /  -13.8 °C 6.5 °F /  -14.2 °C 1026.3 in /  34750.5 hPa Calm   1.6 mph /  2.6 km/h 96 % 0.0 in /  0 mm
07:12 7.6 °F /  -13.6 °C 7.0 °F /  -13.9 °C 1026.3 in /  34750.5 hPa Calm     96 % 0.0 in /  0 mm
07:17 8.3 °F /  -13.2 °C 7.9 °F /  -13.4 °C 1026.3 in /  34750.5 hPa Calm     97 % 0.0 in /  0 mm
07:22 8.4 °F /  -13.1 °C 7.8 °F /  -13.4 °C 1026.3 in /  34750.5 hPa Calm     96 % 0.0 in /  0 mm
07:32 8.9 °F /  -12.8 °C 8.3 °F /  -13.2 °C 1026.6 in /  34760.7 hPa Calm     96 % 0.0 in /  0 mm
07:37 9.1 °F /  -12.7 °C 8.5 °F /  -13.1 °C 1026.6 in /  34760.7 hPa Calm   1.6 mph /  2.6 km/h 96 % 0.0 in /  0 mm
07:42 9.2 °F /  -12.7 °C 8.6 °F /  -13 °C 1026.6 in /  34760.7 hPa Calm   1.6 mph /  2.6 km/h 96 % 0.0 in /  0 mm
07:47 9.5 °F /  -12.5 °C 8.9 °F /  -12.8 °C 1026.6 in /  34760.7 hPa Calm   1.6 mph /  2.6 km/h 96 % 0.0 in /  0 mm
07:52 9.9 °F /  -12.3 °C 9.4 °F /  -12.6 °C 1026.6 in /  34760.7 hPa Calm   1.6 mph /  2.6 km/h 97 % 0.0 in /  0 mm
08:02 10.9 °F /  -11.7 °C 10.4 °F /  -12 °C 1026.3 in /  34750.5 hPa Calm     97 % 0.0 in /  0 mm
08:12 11.1 °F /  -11.6 °C 10.3 °F /  -12.1 °C 1026.3 in /  34750.5 hPa Calm     95 % 0.0 in /  0 mm
08:17 11.1 °F /  -11.6 °C 10.3 °F /  -12.1 °C 1026.3 in /  34750.5 hPa Calm     95 % 0.0 in /  0 mm
08:22 11.4 °F /  -11.4 °C 10.6 °F /  -11.9 °C 1026.3 in /  34750.5 hPa Calm     95 % 0.0 in /  0 mm
08:32 11.7 °F /  -11.3 °C 10.6 °F /  -11.9 °C 1026.3 in /  34750.5 hPa Calm     93 % 0.0 in /  0 mm
08:42 11.9 °F /  -11.2 °C 10.5 °F /  -11.9 °C 1026.3 in /  34750.5 hPa Calm     91 % 0.0 in /  0 mm
08:47 12.2 °F /  -11 °C 10.4 °F /  -12 °C 1026.3 in /  34750.5 hPa Calm     89 % 0.0 in /  0 mm
08:52 12.4 °F /  -10.9 °C 10.3 °F /  -12.1 °C 1026.3 in /  34750.5 hPa Calm     87 % 0.0 in /  0 mm
09:02 12.7 °F /  -10.7 °C 10.6 °F /  -11.9 °C 1026.6 in /  34760.7 hPa Calm   3.2 mph /  5.1 km/h 87 % 0.0 in /  0 mm
09:12 13.2 °F /  -10.4 °C 10.7 °F /  -11.8 °C 1026.6 in /  34760.7 hPa Calm   4.8 mph /  7.7 km/h 85 % 0.0 in /  0 mm
09:17 13.3 °F /  -10.4 °C 10.8 °F /  -11.8 °C 1026.6 in /  34760.7 hPa NE 3.2 mph /  5.1 km/h 4.8 mph /  7.7 km/h 85 % 0.0 in /  0 mm
09:22 13.4 °F /  -10.3 °C 10.9 °F /  -11.7 °C 1026.6 in /  34760.7 hPa NE 3.2 mph /  5.1 km/h 4.8 mph /  7.7 km/h 85 % 0.0 in /  0 mm
09:32 13.8 °F /  -10.1 °C 11.1 °F /  -11.6 °C 1026.6 in /  34760.7 hPa ESE 1.6 mph /  2.6 km/h 4.8 mph /  7.7 km/h 84 % 0.0 in /  0 mm
09:42 14.1 °F /  -9.9 °C 11.3 °F /  -11.5 °C 1026.6 in /  34760.7 hPa ENE 4.8 mph /  7.7 km/h 6.4 mph /  10.3 km/h 83 % 0.0 in /  0 mm
09:52 14.4 °F /  -9.8 °C 11.2 °F /  -11.6 °C 1026.3 in /  34750.5 hPa NE 6.4 mph /  10.3 km/h 6.4 mph /  10.3 km/h 81 % 0.0 in /  0 mm
09:57 14.5 °F /  -9.7 °C 10.9 °F /  -11.7 °C 1026.3 in /  34750.5 hPa ENE 6.4 mph /  10.3 km/h 9.7 mph /  15.6 km/h 79 % 0.0 in /  0 mm
10:02 14.7 °F /  -9.6 °C 11.5 °F /  -11.4 °C 1026.3 in /  34750.5 hPa ENE 6.4 mph /  10.3 km/h 9.7 mph /  15.6 km/h 81 % 0.0 in /  0 mm
10:12 14.9 °F /  -9.5 °C 11.3 °F /  -11.5 °C 1026.3 in /  34750.5 hPa ENE 3.2 mph /  5.1 km/h 9.7 mph /  15.6 km/h 79 % 0.0 in /  0 mm
10:17 15.0 °F /  -9.4 °C 10.6 °F /  -11.9 °C 1026.3 in /  34750.5 hPa East 4.8 mph /  7.7 km/h 9.7 mph /  15.6 km/h 75 % 0.0 in /  0 mm
10:22 15.2 °F /  -9.3 °C 11.0 °F /  -11.7 °C 1026.3 in /  34750.5 hPa NE 3.2 mph /  5.1 km/h 9.7 mph /  15.6 km/h 76 % 0.0 in /  0 mm
10:32 15.3 °F /  -9.3 °C 10.9 °F /  -11.7 °C 1026.3 in /  34750.5 hPa NNE 4.8 mph /  7.7 km/h 11.3 mph /  18.2 km/h 75 % 0.0 in /  0 mm
10:42 15.6 °F /  -9.1 °C 11.6 °F /  -11.3 °C 1026.0 in /  34740.4 hPa ESE 9.7 mph /  15.6 km/h 12.9 mph /  20.8 km/h 77 % 0.0 in /  0 mm
10:47 15.8 °F /  -9 °C 11.6 °F /  -11.3 °C 1026.0 in /  34740.4 hPa ENE 12.9 mph /  20.8 km/h 12.9 mph /  20.8 km/h 76 % 0.0 in /  0 mm
10:52 15.7 °F /  -9.1 °C 11.1 °F /  -11.6 °C 1026.0 in /  34740.4 hPa NNE 8.0 mph /  12.9 km/h 11.3 mph /  18.2 km/h 74 % 0.0 in /  0 mm
11:02 16.1 °F /  -8.8 °C 11.3 °F /  -11.5 °C 1026.0 in /  34740.4 hPa ENE 9.7 mph /  15.6 km/h 12.9 mph /  20.8 km/h 73 % 0.0 in /  0 mm
11:12 16.3 °F /  -8.7 °C 11.0 °F /  -11.7 °C 1026.0 in /  34740.4 hPa ENE 3.2 mph /  5.1 km/h 11.3 mph /  18.2 km/h 71 % 0.0 in /  0 mm
11:17 16.4 °F /  -8.7 °C 10.9 °F /  -11.7 °C 1026.0 in /  34740.4 hPa NNE 6.4 mph /  10.3 km/h 11.3 mph /  18.2 km/h 70 % 0.0 in /  0 mm
11:22 16.5 °F /  -8.6 °C 10.8 °F /  -11.8 °C 1026.0 in /  34740.4 hPa NE 4.8 mph /  7.7 km/h 11.3 mph /  18.2 km/h 69 % 0.0 in /  0 mm
11:32 16.8 °F /  -8.4 °C 9.7 °F /  -12.4 °C 1026.0 in /  34740.4 hPa ENE 8.0 mph /  12.9 km/h 14.5 mph /  23.3 km/h 63 % 0.0 in /  0 mm
11:42 17.3 °F /  -8.2 °C 10.4 °F /  -12 °C 1025.6 in /  34726.8 hPa NE 3.2 mph /  5.1 km/h 14.5 mph /  23.3 km/h 64 % 0.0 in /  0 mm
11:47 17.4 °F /  -8.1 °C 11.0 °F /  -11.7 °C 1025.6 in /  34726.8 hPa ENE 3.2 mph /  5.1 km/h 11.3 mph /  18.2 km/h 66 % 0.0 in /  0 mm
11:52 17.4 °F /  -8.1 °C 10.5 °F /  -11.9 °C 1025.6 in /  34726.8 hPa ENE 9.7 mph /  15.6 km/h 11.3 mph /  18.2 km/h 64 % 0.0 in /  0 mm
12:02 17.4 °F /  -8.1 °C 10.5 °F /  -11.9 °C 1025.6 in /  34726.8 hPa ENE 4.8 mph /  7.7 km/h 14.5 mph /  23.3 km/h 64 % 0.0 in /  0 mm
12:12 17.6 °F /  -8 °C 10.2 °F /  -12.1 °C 1025.6 in /  34726.8 hPa East 9.7 mph /  15.6 km/h 17.7 mph /  28.5 km/h 62 % 0.0 in /  0 mm
12:17 17.7 °F /  -7.9 °C 10.3 °F /  -12.1 °C 1025.6 in /  34726.8 hPa East 6.4 mph /  10.3 km/h 17.7 mph /  28.5 km/h 62 % 0.0 in /  0 mm
12:22 17.4 °F /  -8.1 °C 9.3 °F /  -12.6 °C 1025.6 in /  34726.8 hPa ENE 3.2 mph /  5.1 km/h 17.7 mph /  28.5 km/h 59 % 0.0 in /  0 mm
12:32 17.8 °F /  -7.9 °C 9.9 °F /  -12.3 °C 1025.3 in /  34716.7 hPa NNE 4.8 mph /  7.7 km/h 17.7 mph /  28.5 km/h 60 % 0.0 in /  0 mm
12:37 17.7 °F /  -7.9 °C 9.8 °F /  -12.3 °C 1025.3 in /  34716.7 hPa ENE 3.2 mph /  5.1 km/h 17.7 mph /  28.5 km/h 60 % 0.0 in /  0 mm
12:42 17.8 °F /  -7.9 °C 9.7 °F /  -12.4 °C 1025.3 in /  34716.7 hPa NE 6.4 mph /  10.3 km/h 17.7 mph /  28.5 km/h 59 % 0.0 in /  0 mm
12:47 18.0 °F /  -7.8 °C 9.1 °F /  -12.7 °C 1025.3 in /  34716.7 hPa ENE 6.4 mph /  10.3 km/h 12.9 mph /  20.8 km/h 56 % 0.0 in /  0 mm
12:52 18.1 °F /  -7.7 °C 8.9 °F /  -12.8 °C 1025.3 in /  34716.7 hPa ENE 1.6 mph /  2.6 km/h 12.9 mph /  20.8 km/h 55 % 0.0 in /  0 mm
13:02 18.4 °F /  -7.6 °C 9.2 °F /  -12.7 °C 1024.9 in /  34703.1 hPa ENE 4.8 mph /  7.7 km/h 16.1 mph /  25.9 km/h 55 % 0.0 in /  0 mm
13:12 18.7 °F /  -7.4 °C 8.9 °F /  -12.8 °C 1024.9 in /  34703.1 hPa ENE 6.4 mph /  10.3 km/h 17.7 mph /  28.5 km/h 53 % 0.0 in /  0 mm
13:17 18.8 °F /  -7.3 °C 8.2 °F /  -13.2 °C 1024.9 in /  34703.1 hPa ENE 12.9 mph /  20.8 km/h 17.7 mph /  28.5 km/h 50 % 0.0 in /  0 mm
13:22 18.7 °F /  -7.4 °C 8.4 °F /  -13.1 °C 1024.9 in /  34703.1 hPa NE 8.0 mph /  12.9 km/h 17.7 mph /  28.5 km/h 51 % 0.0 in /  0 mm
13:32 19.1 °F /  -7.2 °C 8.4 °F /  -13.1 °C 1024.6 in /  34693 hPa East 4.8 mph /  7.7 km/h 17.7 mph /  28.5 km/h 50 % 0.0 in /  0 mm
13:37 19.2 °F /  -7.1 °C 8.5 °F /  -13.1 °C 1024.6 in /  34693 hPa ENE 9.7 mph /  15.6 km/h 9.7 mph /  15.6 km/h 50 % 0.0 in /  0 mm
13:42 19.2 °F /  -7.1 °C 7.9 °F /  -13.4 °C 1024.6 in /  34693 hPa NE 14.5 mph /  23.3 km/h 14.5 mph /  23.3 km/h 48 % 0.0 in /  0 mm
13:52 19.1 °F /  -7.2 °C 7.5 °F /  -13.6 °C 1024.6 in /  34693 hPa East 8.0 mph /  12.9 km/h 20.9 mph /  33.6 km/h 47 % 0.0 in /  0 mm
14:02 19.2 °F /  -7.1 °C 8.8 °F /  -12.9 °C 1024.3 in /  34682.8 hPa ESE 4.8 mph /  7.7 km/h 20.9 mph /  33.6 km/h 51 % 0.0 in /  0 mm
14:12 19.6 °F /  -6.9 °C 8.6 °F /  -13 °C 1024.3 in /  34682.8 hPa East 3.2 mph /  5.1 km/h 17.7 mph /  28.5 km/h 49 % 0.0 in /  0 mm
14:22 19.5 °F /  -6.9 °C 8.8 °F /  -12.9 °C 1024.3 in /  34682.8 hPa ENE 8.0 mph /  12.9 km/h 14.5 mph /  23.3 km/h 50 % 0.0 in /  0 mm
14:27 19.7 °F /  -6.8 °C 8.7 °F /  -12.9 °C 1024.3 in /  34682.8 hPa NE 11.3 mph /  18.2 km/h 20.9 mph /  33.6 km/h 49 % 0.0 in /  0 mm
14:32 20.0 °F /  -6.7 °C 9.6 °F /  -12.4 °C 1023.9 in /  34669.3 hPa ESE 3.2 mph /  5.1 km/h 20.9 mph /  33.6 km/h 51 % 0.0 in /  0 mm
14:42 20.1 °F /  -6.6 °C 9.1 °F /  -12.7 °C 1023.9 in /  34669.3 hPa East 8.0 mph /  12.9 km/h 14.5 mph /  23.3 km/h 49 % 0.0 in /  0 mm
14:47 19.9 °F /  -6.7 °C 8.6 °F /  -13 °C 1023.9 in /  34669.3 hPa East 4.8 mph /  7.7 km/h 14.5 mph /  23.3 km/h 48 % 0.0 in /  0 mm
14:52 20.0 °F /  -6.7 °C 9.3 °F /  -12.6 °C 1023.6 in /  34659.1 hPa East 8.0 mph /  12.9 km/h 14.5 mph /  23.3 km/h 50 % 0.0 in /  0 mm
15:02 20.1 °F /  -6.6 °C 9.6 °F /  -12.4 °C 1023.6 in /  34659.1 hPa East 11.3 mph /  18.2 km/h 14.5 mph /  23.3 km/h 51 % 0.0 in /  0 mm
15:12 20.3 °F /  -6.5 °C 9.5 °F /  -12.5 °C 1023.6 in /  34659.1 hPa ENE 11.3 mph /  18.2 km/h 16.1 mph /  25.9 km/h 50 % 0.0 in /  0 mm
15:17 20.2 °F /  -6.6 °C 9.4 °F /  -12.6 °C 1023.6 in /  34659.1 hPa ENE 17.7 mph /  28.5 km/h 20.9 mph /  33.6 km/h 50 % 0.0 in /  0 mm
15:22 20.0 °F /  -6.7 °C 8.7 °F /  -12.9 °C 1023.6 in /  34659.1 hPa ENE 4.8 mph /  7.7 km/h 20.9 mph /  33.6 km/h 48 % 0.0 in /  0 mm
15:32 20.3 °F /  -6.5 °C 11.0 °F /  -11.7 °C 1023.6 in /  34659.1 hPa ENE 8.0 mph /  12.9 km/h 20.9 mph /  33.6 km/h 55 % 0.0 in /  0 mm
15:42 19.8 °F /  -6.8 °C 9.4 °F /  -12.6 °C 1023.2 in /  34645.6 hPa NNE 11.3 mph /  18.2 km/h 16.1 mph /  25.9 km/h 51 % 0.0 in /  0 mm
15:47 19.9 °F /  -6.7 °C 9.2 °F /  -12.7 °C 1023.2 in /  34645.6 hPa NE 9.7 mph /  15.6 km/h 22.5 mph /  36.2 km/h 50 % 0.0 in /  0 mm
15:52 19.9 °F /  -6.7 °C 9.5 °F /  -12.5 °C 1023.2 in /  34645.6 hPa NE 4.8 mph /  7.7 km/h 22.5 mph /  36.2 km/h 51 % 0.0 in /  0 mm
15:57 20.1 °F /  -6.6 °C 9.4 °F /  -12.6 °C 1023.2 in /  34645.6 hPa ENE 1.6 mph /  2.6 km/h 17.7 mph /  28.5 km/h 50 % 0.0 in /  0 mm
16:02 20.3 °F /  -6.5 °C 9.5 °F /  -12.5 °C 1023.2 in /  34645.6 hPa ENE 4.8 mph /  7.7 km/h 17.7 mph /  28.5 km/h 50 % 0.0 in /  0 mm
16:12 20.1 °F /  -6.6 °C 9.4 °F /  -12.6 °C 1022.9 in /  34635.4 hPa East 4.8 mph /  7.7 km/h 14.5 mph /  23.3 km/h 50 % 0.0 in /  0 mm
16:17 20.3 °F /  -6.5 °C 9.2 °F /  -12.7 °C 1022.9 in /  34635.4 hPa East 1.6 mph /  2.6 km/h 17.7 mph /  28.5 km/h 49 % 0.0 in /  0 mm
16:22 20.3 °F /  -6.5 °C 9.8 °F /  -12.3 °C 1022.9 in /  34635.4 hPa ENE 9.7 mph /  15.6 km/h 17.7 mph /  28.5 km/h 51 % 0.0 in /  0 mm
16:32 20.2 °F /  -6.6 °C 9.7 °F /  -12.4 °C 1022.6 in /  34625.2 hPa East 8.0 mph /  12.9 km/h 14.5 mph /  23.3 km/h 51 % 0.0 in /  0 mm
16:37 20.3 °F /  -6.5 °C 9.2 °F /  -12.7 °C 1022.6 in /  34625.2 hPa ENE 6.4 mph /  10.3 km/h 16.1 mph /  25.9 km/h 49 % 0.0 in /  0 mm
16:42 20.2 °F /  -6.6 °C 9.7 °F /  -12.4 °C 1022.6 in /  34625.2 hPa NE 11.3 mph /  18.2 km/h 16.1 mph /  25.9 km/h 51 % 0.0 in /  0 mm
16:47 20.3 °F /  -6.5 °C 9.8 °F /  -12.3 °C 1022.2 in /  34611.7 hPa NE 9.7 mph /  15.6 km/h 14.5 mph /  23.3 km/h 51 % 0.0 in /  0 mm
16:52 20.1 °F /  -6.6 °C 9.4 °F /  -12.6 °C 1022.2 in /  34611.7 hPa ENE 3.2 mph /  5.1 km/h 14.5 mph /  23.3 km/h 50 % 0.0 in /  0 mm
16:57 20.2 °F /  -6.6 °C 9.7 °F /  -12.4 °C 1022.2 in /  34611.7 hPa East 3.2 mph /  5.1 km/h 16.1 mph /  25.9 km/h 51 % 0.0 in /  0 mm
17:02 20.4 °F /  -6.4 °C 10.2 °F /  -12.1 °C 1022.2 in /  34611.7 hPa East 12.9 mph /  20.8 km/h 16.1 mph /  25.9 km/h 52 % 0.0 in /  0 mm
17:07 20.3 °F /  -6.5 °C 9.2 °F /  -12.7 °C 1022.2 in /  34611.7 hPa NNE 9.7 mph /  15.6 km/h 16.1 mph /  25.9 km/h 49 % 0.0 in /  0 mm
17:12 20.3 °F /  -6.5 °C 9.5 °F /  -12.5 °C 1021.9 in /  34601.5 hPa NE 12.9 mph /  20.8 km/h 16.1 mph /  25.9 km/h 50 % 0.0 in /  0 mm
17:17 20.4 °F /  -6.4 °C 10.2 °F /  -12.1 °C 1022.2 in /  34611.7 hPa ENE 6.4 mph /  10.3 km/h 16.1 mph /  25.9 km/h 52 % 0.0 in /  0 mm
17:22 20.3 °F /  -6.5 °C 9.5 °F /  -12.5 °C 1022.2 in /  34611.7 hPa ENE 4.8 mph /  7.7 km/h 16.1 mph /  25.9 km/h 50 % 0.0 in /  0 mm
17:32 20.5 °F /  -6.4 °C 9.4 °F /  -12.6 °C 1021.9 in /  34601.5 hPa ESE 4.8 mph /  7.7 km/h 14.5 mph /  23.3 km/h 49 % 0.0 in /  0 mm
17:37 20.5 °F /  -6.4 °C 9.7 °F /  -12.4 °C 1021.9 in /  34601.5 hPa NNE 8.0 mph /  12.9 km/h 12.9 mph /  20.8 km/h 50 % 0.0 in /  0 mm
17:42 20.5 °F /  -6.4 °C 9.4 °F /  -12.6 °C 1021.6 in /  34591.4 hPa NE 17.7 mph /  28.5 km/h 20.9 mph /  33.6 km/h 49 % 0.0 in /  0 mm
17:47 20.4 °F /  -6.4 °C 9.6 °F /  -12.4 °C 1021.6 in /  34591.4 hPa ENE 9.7 mph /  15.6 km/h 20.9 mph /  33.6 km/h 50 % 0.0 in /  0 mm
17:52 20.4 °F /  -6.4 °C 8.7 °F /  -12.9 °C 1021.6 in /  34591.4 hPa ENE 9.7 mph /  15.6 km/h 20.9 mph /  33.6 km/h 47 % 0.0 in /  0 mm
18:02 20.6 °F /  -6.3 °C 10.1 °F /  -12.2 °C 1021.6 in /  34591.4 hPa ENE 1.6 mph /  2.6 km/h 19.3 mph /  31.1 km/h 51 % 0.0 in /  0 mm
18:07 20.7 °F /  -6.3 °C 10.5 °F /  -11.9 °C 1021.6 in /  34591.4 hPa East 4.8 mph /  7.7 km/h 16.1 mph /  25.9 km/h 52 % 0.0 in /  0 mm
18:12 20.7 °F /  -6.3 °C 9.9 °F /  -12.3 °C 1021.6 in /  34591.4 hPa ENE 11.3 mph /  18.2 km/h 16.1 mph /  25.9 km/h 50 % 0.0 in /  0 mm
18:17 20.6 °F /  -6.3 °C 8.9 °F /  -12.8 °C 1021.6 in /  34591.4 hPa ENE 1.6 mph /  2.6 km/h 14.5 mph /  23.3 km/h 47 % 0.0 in /  0 mm
18:22 20.6 °F /  -6.3 °C 9.2 °F /  -12.7 °C 1021.2 in /  34577.8 hPa NE 4.8 mph /  7.7 km/h 17.7 mph /  28.5 km/h 48 % 0.0 in /  0 mm
18:27 20.6 °F /  -6.3 °C 9.8 °F /  -12.3 °C 1021.2 in /  34577.8 hPa ENE 12.9 mph /  20.8 km/h 17.7 mph /  28.5 km/h 50 % 0.0 in /  0 mm
18:32 20.5 °F /  -6.4 °C 9.4 °F /  -12.6 °C 1021.2 in /  34577.8 hPa East 3.2 mph /  5.1 km/h 19.3 mph /  31.1 km/h 49 % 0.0 in /  0 mm
18:37 20.5 °F /  -6.4 °C 10.0 °F /  -12.2 °C 1021.2 in /  34577.8 hPa ENE 9.7 mph /  15.6 km/h 19.3 mph /  31.1 km/h 51 % 0.0 in /  0 mm
18:42 20.5 °F /  -6.4 °C 10.3 °F /  -12.1 °C 1021.2 in /  34577.8 hPa NE 6.4 mph /  10.3 km/h 19.3 mph /  31.1 km/h 52 % 0.0 in /  0 mm
18:52 20.6 °F /  -6.3 °C 10.7 °F /  -11.8 °C 1021.2 in /  34577.8 hPa East 6.4 mph /  10.3 km/h 12.9 mph /  20.8 km/h 53 % 0.0 in /  0 mm
19:02 20.4 °F /  -6.4 °C 9.9 °F /  -12.3 °C 1020.9 in /  34567.7 hPa ESE 8.0 mph /  12.9 km/h 12.9 mph /  20.8 km/h 51 % 0.0 in /  0 mm
19:07 20.4 °F /  -6.4 °C 10.5 °F /  -11.9 °C 1020.9 in /  34567.7 hPa East 4.8 mph /  7.7 km/h 12.9 mph /  20.8 km/h 53 % 0.0 in /  0 mm
19:12 20.3 °F /  -6.5 °C 10.7 °F /  -11.8 °C 1020.9 in /  34567.7 hPa ENE 6.4 mph /  10.3 km/h 12.9 mph /  20.8 km/h 54 % 0.0 in /  0 mm
19:17 20.3 °F /  -6.5 °C 9.8 °F /  -12.3 °C 1020.9 in /  34567.7 hPa East 6.4 mph /  10.3 km/h 16.1 mph /  25.9 km/h 51 % 0.0 in /  0 mm
19:22 20.2 °F /  -6.6 °C 9.7 °F /  -12.4 °C 1020.9 in /  34567.7 hPa ENE 9.7 mph /  15.6 km/h 16.1 mph /  25.9 km/h 51 % 0.0 in /  0 mm
19:32 20.1 °F /  -6.6 °C 10.5 °F /  -11.9 °C 1020.5 in /  34554.1 hPa East 3.2 mph /  5.1 km/h 17.7 mph /  28.5 km/h 54 % 0.0 in /  0 mm
19:37 20.1 °F /  -6.6 °C 10.8 °F /  -11.8 °C 1020.5 in /  34554.1 hPa ENE 3.2 mph /  5.1 km/h 11.3 mph /  18.2 km/h 55 % 0.0 in /  0 mm
19:42 19.9 °F /  -6.7 °C 10.9 °F /  -11.7 °C 1020.5 in /  34554.1 hPa ENE 6.4 mph /  10.3 km/h 11.3 mph /  18.2 km/h 56 % 0.0 in /  0 mm
19:47 19.8 °F /  -6.8 °C 11.0 °F /  -11.7 °C 1020.5 in /  34554.1 hPa ENE 6.4 mph /  10.3 km/h 9.7 mph /  15.6 km/h 57 % 0.0 in /  0 mm
19:52 19.7 °F /  -6.8 °C 10.7 °F /  -11.8 °C 1020.5 in /  34554.1 hPa ENE 6.4 mph /  10.3 km/h 9.7 mph /  15.6 km/h 56 % 0.0 in /  0 mm
19:57 19.6 °F /  -6.9 °C 11.1 °F /  -11.6 °C 1020.5 in /  34554.1 hPa ENE 3.2 mph /  5.1 km/h 9.7 mph /  15.6 km/h 58 % 0.0 in /  0 mm
20:02 19.5 °F /  -6.9 °C 11.3 °F /  -11.5 °C 1020.5 in /  34554.1 hPa ENE 3.2 mph /  5.1 km/h 9.7 mph /  15.6 km/h 59 % 0.0 in /  0 mm
20:12 19.2 °F /  -7.1 °C 11.5 °F /  -11.4 °C 1020.5 in /  34554.1 hPa ENE 3.2 mph /  5.1 km/h 8.0 mph /  12.9 km/h 61 % 0.0 in /  0 mm
20:17 18.9 °F /  -7.3 °C 11.5 °F /  -11.4 °C 1020.5 in /  34554.1 hPa East 3.2 mph /  5.1 km/h 6.4 mph /  10.3 km/h 62 % 0.0 in /  0 mm
20:22 18.8 °F /  -7.3 °C 11.8 °F /  -11.2 °C 1020.5 in /  34554.1 hPa ENE 4.8 mph /  7.7 km/h 6.4 mph /  10.3 km/h 64 % 0.0 in /  0 mm
20:32 18.4 °F /  -7.6 °C 11.5 °F /  -11.4 °C 1020.5 in /  34554.1 hPa ENE 1.6 mph /  2.6 km/h 4.8 mph /  7.7 km/h 64 % 0.0 in /  0 mm
20:42 18.1 °F /  -7.7 °C 11.4 °F /  -11.4 °C 1020.2 in /  34544 hPa ENE 3.2 mph /  5.1 km/h 4.8 mph /  7.7 km/h 65 % 0.0 in /  0 mm
20:47 17.9 °F /  -7.8 °C 11.5 °F /  -11.4 °C 1020.2 in /  34544 hPa ENE 1.6 mph /  2.6 km/h 4.8 mph /  7.7 km/h 66 % 0.0 in /  0 mm
20:52 17.8 °F /  -7.9 °C 11.1 °F /  -11.6 °C 1020.2 in /  34544 hPa ENE 1.6 mph /  2.6 km/h 4.8 mph /  7.7 km/h 65 % 0.0 in /  0 mm
21:02 17.7 °F /  -7.9 °C 10.6 °F /  -11.9 °C 1020.2 in /  34544 hPa NE 3.2 mph /  5.1 km/h 4.8 mph /  7.7 km/h 63 % 0.0 in /  0 mm
21:12 17.6 °F /  -8 °C 10.5 °F /  -11.9 °C 1020.2 in /  34544 hPa NNE 3.2 mph /  5.1 km/h 4.8 mph /  7.7 km/h 63 % 0.0 in /  0 mm
21:17 17.6 °F /  -8 °C 10.2 °F /  -12.1 °C 1020.2 in /  34544 hPa NE 3.2 mph /  5.1 km/h 4.8 mph /  7.7 km/h 62 % 0.0 in /  0 mm
21:22 17.4 °F /  -8.1 °C 10.3 °F /  -12.1 °C 1020.2 in /  34544 hPa NE 3.2 mph /  5.1 km/h 4.8 mph /  7.7 km/h 63 % 0.0 in /  0 mm
21:32 17.1 °F /  -8.3 °C 10.7 °F /  -11.8 °C 1020.2 in /  34544 hPa NE 3.2 mph /  5.1 km/h 6.4 mph /  10.3 km/h 66 % 0.0 in /  0 mm
21:37 16.9 °F /  -8.4 °C 10.5 °F /  -11.9 °C 1020.2 in /  34544 hPa NE 3.2 mph /  5.1 km/h 8.0 mph /  12.9 km/h 66 % 0.0 in /  0 mm
21:42 16.7 °F /  -8.5 °C 10.5 °F /  -11.9 °C 1020.2 in /  34544 hPa NE 4.8 mph /  7.7 km/h 8.0 mph /  12.9 km/h 67 % 0.0 in /  0 mm
21:47 16.5 °F /  -8.6 °C 10.6 °F /  -11.9 °C 1019.9 in /  34533.8 hPa NE 3.2 mph /  5.1 km/h 8.0 mph /  12.9 km/h 68 % 0.0 in /  0 mm
21:57 16.3 °F /  -8.7 °C 10.6 °F /  -11.9 °C 1020.2 in /  34544 hPa NE 3.2 mph /  5.1 km/h 6.4 mph /  10.3 km/h 69 % 0.0 in /  0 mm
22:07 15.9 °F /  -8.9 °C 10.4 °F /  -12 °C 1019.9 in /  34533.8 hPa NE 3.2 mph /  5.1 km/h 6.4 mph /  10.3 km/h 70 % 0.0 in /  0 mm
22:12 15.9 °F /  -8.9 °C 10.4 °F /  -12 °C 1020.2 in /  34544 hPa NE 3.2 mph /  5.1 km/h 6.4 mph /  10.3 km/h 70 % 0.0 in /  0 mm
22:17 15.9 °F /  -8.9 °C 10.4 °F /  -12 °C 1019.9 in /  34533.8 hPa NNE 4.8 mph /  7.7 km/h 6.4 mph /  10.3 km/h 70 % 0.0 in /  0 mm
22:22 15.9 °F /  -8.9 °C 10.2 °F /  -12.1 °C 1019.9 in /  34533.8 hPa NE 4.8 mph /  7.7 km/h 6.4 mph /  10.3 km/h 69 % 0.0 in /  0 mm
22:32 15.7 °F /  -9.1 °C 10.2 °F /  -12.1 °C 1019.9 in /  34533.8 hPa NE 6.4 mph /  10.3 km/h 8.0 mph /  12.9 km/h 70 % 0.0 in /  0 mm
22:42 15.4 °F /  -9.2 °C 10.0 °F /  -12.2 °C 1019.9 in /  34533.8 hPa NE 4.8 mph /  7.7 km/h 8.0 mph /  12.9 km/h 70 % 0.0 in /  0 mm
22:47 15.3 °F /  -9.3 °C 10.1 °F /  -12.2 °C 1019.9 in /  34533.8 hPa NE 4.8 mph /  7.7 km/h 9.7 mph /  15.6 km/h 71 % 0.0 in /  0 mm
22:52 15.1 °F /  -9.4 °C 10.1 °F /  -12.2 °C 1019.9 in /  34533.8 hPa NE 4.8 mph /  7.7 km/h 9.7 mph /  15.6 km/h 72 % 0.0 in /  0 mm
22:57 14.8 °F /  -9.6 °C 10.0 °F /  -12.2 °C 1019.5 in /  34520.3 hPa ENE 4.8 mph /  7.7 km/h 9.7 mph /  15.6 km/h 73 % 0.0 in /  0 mm
23:02 14.8 °F /  -9.6 °C 10.0 °F /  -12.2 °C 1019.5 in /  34520.3 hPa NE 6.4 mph /  10.3 km/h 9.7 mph /  15.6 km/h 73 % 0.0 in /  0 mm
23:12 14.8 °F /  -9.6 °C 10.0 °F /  -12.2 °C 1019.5 in /  34520.3 hPa ENE 4.8 mph /  7.7 km/h 9.7 mph /  15.6 km/h 73 % 0.0 in /  0 mm
23:17 14.8 °F /  -9.6 °C 10.0 °F /  -12.2 °C 1019.5 in /  34520.3 hPa ENE 4.8 mph /  7.7 km/h 9.7 mph /  15.6 km/h 73 % 0.0 in /  0 mm
23:22 14.6 °F /  -9.7 °C 10.0 °F /  -12.2 °C 1019.5 in /  34520.3 hPa ENE 3.2 mph /  5.1 km/h 9.7 mph /  15.6 km/h 74 % 0.0 in /  0 mm
23:27 14.4 °F /  -9.8 °C 10.0 °F /  -12.2 °C 1019.5 in /  34520.3 hPa East 3.2 mph /  5.1 km/h 8.0 mph /  12.9 km/h 75 % 0.0 in /  0 mm
23:32 14.3 °F /  -9.8 °C 9.9 °F /  -12.3 °C 1019.5 in /  34520.3 hPa ENE 1.6 mph /  2.6 km/h 8.0 mph /  12.9 km/h 75 % 0.0 in /  0 mm
23:37 14.2 °F /  -9.9 °C 9.8 °F /  -12.3 °C 1019.5 in /  34520.3 hPa East 3.2 mph /  5.1 km/h 6.4 mph /  10.3 km/h 75 % 0.0 in /  0 mm
23:42 14.2 °F /  -9.9 °C 9.8 °F /  -12.3 °C 1019.5 in /  34520.3 hPa ENE 1.6 mph /  2.6 km/h 6.4 mph /  10.3 km/h 75 % 0.0 in /  0 mm
23:52 14.5 °F /  -9.7 °C 9.7 °F /  -12.4 °C 1019.5 in /  34520.3 hPa ENE 4.8 mph /  7.7 km/h 4.8 mph /  7.7 km/h 73 % 0.0 in /  0 mm
23:57 14.4 °F /  -9.8 °C 9.6 °F /  -12.4 °C 1019.5 in /  34520.3 hPa ENE 4.8 mph /  7.7 km/h 6.4 mph /  10.3 km/h 73 % 0.0 in /  0 mm
Meteo18
Compliments of Weather Underground - 4 mb

Script developed by  Jim McMurry - jmcmurry@mwt.net Adapted for the template by  Wim van der Kuil - Leuven-Template.eu

You find our weather info also at:

European Weather Network

Weather Underground

Equipment we use:

Weather-station
Davis Vue

Weather-program
Meteobridge

Weather-server
Raspberry PI 2 B+

Provider
1 and 1

Davis Vue

Meteobridge

Raspberry PI 2 B+

1 and 1